sensor_id;sensor_type;location;lat;lon;timestamp;pressure;altitude;pressure_sealevel;temperature;humidity
33185;BME280;19550;42.872;25.494;2023-01-25T00:01:59;97781.81;;;0.52;100.00
33185;BME280;19550;42.872;25.494;2023-01-25T00:04:26;97792.69;;;0.58;100.00
33185;BME280;19550;42.872;25.494;2023-01-25T00:06:53;97796.84;;;0.61;100.00
33185;BME280;19550;42.872;25.494;2023-01-25T00:09:21;97793.22;;;0.67;100.00
33185;BME280;19550;42.872;25.494;2023-01-25T00:11:49;97790.06;;;0.45;100.00
33185;BME280;19550;42.872;25.494;2023-01-25T00:14:17;97791.53;;;0.41;100.00
33185;BME280;19550;42.872;25.494;2023-01-25T00:16:45;97766.31;;;0.21;100.00
33185;BME280;19550;42.872;25.494;2023-01-25T00:19:11;97782.38;;;0.35;100.00
33185;BME280;19550;42.872;25.494;2023-01-25T00:21:38;97787.44;;;0.32;100.00
33185;BME280;19550;42.872;25.494;2023-01-25T00:24:06;97796.47;;;0.32;100.00
33185;BME280;19550;42.872;25.494;2023-01-25T00:26:34;97786.69;;;0.18;100.00
33185;BME280;19550;42.872;25.494;2023-01-25T00:29:03;97791.66;;;0.28;100.00
33185;BME280;19550;42.872;25.494;2023-01-25T00:31:40;97775.16;;;0.16;100.00
33185;BME280;19550;42.872;25.494;2023-01-25T00:34:44;97785.66;;;0.19;100.00
33185;BME280;19550;42.872;25.494;2023-01-25T00:37:28;97787.66;;;0.30;100.00
33185;BME280;19550;42.872;25.494;2023-01-25T00:39:55;97783.56;;;0.46;100.00
33185;BME280;19550;42.872;25.494;2023-01-25T00:42:22;97785.50;;;0.39;100.00
33185;BME280;19550;42.872;25.494;2023-01-25T00:44:50;97758.88;;;0.34;100.00
33185;BME280;19550;42.872;25.494;2023-01-25T00:47:17;97786.56;;;0.38;100.00
33185;BME280;19550;42.872;25.494;2023-01-25T00:49:44;97778.00;;;0.28;100.00
33185;BME280;19550;42.872;25.494;2023-01-25T00:52:12;97756.19;;;0.28;100.00
33185;BME280;19550;42.872;25.494;2023-01-25T00:54:39;97761.13;;;0.44;100.00
33185;BME280;19550;42.872;25.494;2023-01-25T00:57:06;97767.63;;;0.43;100.00
33185;BME280;19550;42.872;25.494;2023-01-25T00:59:34;97765.94;;;0.42;100.00
33185;BME280;19550;42.872;25.494;2023-01-25T01:02:02;97766.00;;;0.35;100.00
33185;BME280;19550;42.872;25.494;2023-01-25T01:04:30;97777.38;;;0.32;100.00
33185;BME280;19550;42.872;25.494;2023-01-25T01:06:57;97769.84;;;0.28;100.00
33185;BME280;19550;42.872;25.494;2023-01-25T01:09:23;97766.41;;;0.39;100.00
33185;BME280;19550;42.872;25.494;2023-01-25T01:11:51;97753.72;;;0.26;100.00
33185;BME280;19550;42.872;25.494;2023-01-25T01:14:18;97765.44;;;0.27;100.00
33185;BME280;19550;42.872;25.494;2023-01-25T01:16:45;97766.31;;;0.21;100.00
33185;BME280;19550;42.872;25.494;2023-01-25T01:19:14;97754.94;;;0.30;100.00
33185;BME280;19550;42.872;25.494;2023-01-25T01:21:41;97752.75;;;0.14;100.00
33185;BME280;19550;42.872;25.494;2023-01-25T01:24:09;97751.63;;;0.22;100.00
33185;BME280;19550;42.872;25.494;2023-01-25T01:26:36;97744.97;;;0.18;100.00
33185;BME280;19550;42.872;25.494;2023-01-25T01:29:03;97741.25;;;0.12;100.00
33185;BME280;19550;42.872;25.494;2023-01-25T01:31:30;97744.97;;;0.18;100.00
33185;BME280;19550;42.872;25.494;2023-01-25T01:33:57;97752.38;;;0.35;100.00
33185;BME280;19550;42.872;25.494;2023-01-25T01:36:28;97751.75;;;0.33;100.00
33185;BME280;19550;42.872;25.494;2023-01-25T01:38:57;97758.28;;;0.32;100.00
33185;BME280;19550;42.872;25.494;2023-01-25T01:41:24;97751.00;;;0.26;100.00
33185;BME280;19550;42.872;25.494;2023-01-25T01:43:51;97752.81;;;0.32;100.00
33185;BME280;19550;42.872;25.494;2023-01-25T01:46:25;97755.41;;;0.21;100.00
33185;BME280;19550;42.872;25.494;2023-01-25T01:48:55;97740.94;;;0.20;100.00
33185;BME280;19550;42.872;25.494;2023-01-25T01:51:36;97751.75;;;0.33;100.00
33185;BME280;19550;42.872;25.494;2023-01-25T01:54:08;97743.13;;;0.36;100.00
33185;BME280;19550;42.872;25.494;2023-01-25T01:56:39;97724.72;;;0.32;100.00
33185;BME280;19550;42.872;25.494;2023-01-25T01:59:08;97745.97;;;0.48;100.00
33185;BME280;19550;42.872;25.494;2023-01-25T02:01:35;97736.28;;;0.52;100.00
33185;BME280;19550;42.872;25.494;2023-01-25T02:04:04;97739.66;;;0.48;100.00
33185;BME280;19550;42.872;25.494;2023-01-25T02:06:39;97745.13;;;0.48;100.00
33185;BME280;19550;42.872;25.494;2023-01-25T02:09:10;97729.22;;;0.45;100.00
33185;BME280;19550;42.872;25.494;2023-01-25T02:11:38;97741.63;;;0.40;100.00
33185;BME280;19550;42.872;25.494;2023-01-25T02:14:06;97746.84;;;0.42;100.00
33185;BME280;19550;42.872;25.494;2023-01-25T02:16:33;97744.06;;;0.49;100.00
33185;BME280;19550;42.872;25.494;2023-01-25T02:19:00;97737.72;;;0.55;100.00
33185;BME280;19550;42.872;25.494;2023-01-25T02:21:32;97704.59;;;0.33;100.00
33185;BME280;19550;42.872;25.494;2023-01-25T02:24:07;97734.94;;;0.36;100.00
33185;BME280;19550;42.872;25.494;2023-01-25T02:26:38;97739.91;;;0.46;100.00
33185;BME280;19550;42.872;25.494;2023-01-25T02:29:07;97732.44;;;0.60;100.00
33185;BME280;19550;42.872;25.494;2023-01-25T02:31:34;97723.59;;;0.39;100.00
33185;BME280;19550;42.872;25.494;2023-01-25T02:34:01;97740.97;;;0.45;100.00
33185;BME280;19550;42.872;25.494;2023-01-25T02:36:29;97737.06;;;0.34;100.00
33185;BME280;19550;42.872;25.494;2023-01-25T02:39:00;97740.47;;;0.30;100.00
33185;BME280;19550;42.872;25.494;2023-01-25T02:41:31;97740.25;;;0.31;100.00
33185;BME280;19550;42.872;25.494;2023-01-25T02:44:01;97736.78;;;0.18;100.00
33185;BME280;19550;42.872;25.494;2023-01-25T02:46:31;97739.91;;;0.21;100.00
33185;BME280;19550;42.872;25.494;2023-01-25T02:48:59;97733.34;;;0.29;100.00
33185;BME280;19550;42.872;25.494;2023-01-25T02:51:28;97729.56;;;0.30;100.00
33185;BME280;19550;42.872;25.494;2023-01-25T02:53:56;97734.38;;;0.28;100.00
33185;BME280;19550;42.872;25.494;2023-01-25T02:56:23;97735.00;;;0.30;100.00
33185;BME280;19550;42.872;25.494;2023-01-25T02:58:51;97715.81;;;0.18;100.00
33185;BME280;19550;42.872;25.494;2023-01-25T03:01:19;97730.00;;;0.27;100.00
33185;BME280;19550;42.872;25.494;2023-01-25T03:03:47;97723.97;;;0.43;100.00
33185;BME280;19550;42.872;25.494;2023-01-25T03:06:14;97735.16;;;0.35;100.00
33185;BME280;19550;42.872;25.494;2023-01-25T03:08:41;97737.69;;;0.36;100.00
33185;BME280;19550;42.872;25.494;2023-01-25T03:11:09;97731.44;;;0.29;100.00
33185;BME280;19550;42.872;25.494;2023-01-25T03:13:36;97731.44;;;0.29;100.00
33185;BME280;19550;42.872;25.494;2023-01-25T03:16:05;97721.00;;;0.26;100.00
33185;BME280;19550;42.872;25.494;2023-01-25T03:18:34;97720.16;;;0.26;100.00
33185;BME280;19550;42.872;25.494;2023-01-25T03:21:06;97715.97;;;0.23;100.00
33185;BME280;19550;42.872;25.494;2023-01-25T03:23:34;97724.59;;;0.20;100.00
33185;BME280;19550;42.872;25.494;2023-01-25T03:26:06;97714.16;;;0.17;100.00
33185;BME280;19550;42.872;25.494;2023-01-25T03:28:33;97718.19;;;0.08;100.00
33185;BME280;19550;42.872;25.494;2023-01-25T03:31:00;97721.69;;;0.15;100.00
33185;BME280;19550;42.872;25.494;2023-01-25T03:33:27;97724.47;;;0.09;100.00
33185;BME280;19550;42.872;25.494;2023-01-25T03:35:57;97724.47;;;0.09;100.00
33185;BME280;19550;42.872;25.494;2023-01-25T03:38:24;97688.16;;;-0.10;100.00
33185;BME280;19550;42.872;25.494;2023-01-25T03:40:51;97721.22;;;0.00;100.00
33185;BME280;19550;42.872;25.494;2023-01-25T03:43:18;97691.81;;;-0.23;100.00
33185;BME280;19550;42.872;25.494;2023-01-25T03:45:47;97727.53;;;-0.06;100.00
33185;BME280;19550;42.872;25.494;2023-01-25T03:48:17;97702.50;;;-0.21;100.00
33185;BME280;19550;42.872;25.494;2023-01-25T03:50:47;97727.13;;;-0.10;100.00
33185;BME280;19550;42.872;25.494;2023-01-25T03:53:16;97723.75;;;-0.05;100.00
33185;BME280;19550;42.872;25.494;2023-01-25T03:55:52;97720.44;;;-0.07;100.00
33185;BME280;19550;42.872;25.494;2023-01-25T03:58:20;97705.56;;;-0.11;100.00
33185;BME280;19550;42.872;25.494;2023-01-25T04:00:47;97691.31;;;-0.13;100.00
33185;BME280;19550;42.872;25.494;2023-01-25T04:03:14;97724.53;;;0.02;100.00
33185;BME280;19550;42.872;25.494;2023-01-25T04:05:42;97724.63;;;0.14;100.00
33185;BME280;19550;42.872;25.494;2023-01-25T04:08:09;97720.03;;;0.14;100.00
33185;BME280;19550;42.872;25.494;2023-01-25T04:10:37;97689.50;;;0.06;100.00
33185;BME280;19550;42.872;25.494;2023-01-25T04:13:04;97728.34;;;0.26;100.00
33185;BME280;19550;42.872;25.494;2023-01-25T04:15:31;97719.31;;;0.25;100.00
33185;BME280;19550;42.872;25.494;2023-01-25T04:17:58;97729.66;;;0.17;100.00
33185;BME280;19550;42.872;25.494;2023-01-25T04:20:25;97735.28;;;0.22;100.00
33185;BME280;19550;42.872;25.494;2023-01-25T04:22:52;97721.31;;;0.12;100.00
33185;BME280;19550;42.872;25.494;2023-01-25T04:25:18;97729.94;;;0.09;100.00
33185;BME280;19550;42.872;25.494;2023-01-25T04:27:48;97735.34;;;0.15;100.00
33185;BME280;19550;42.872;25.494;2023-01-25T04:30:16;97733.72;;;0.08;100.00
33185;BME280;19550;42.872;25.494;2023-01-25T04:32:43;97725.41;;;-0.04;100.00
33185;BME280;19550;42.872;25.494;2023-01-25T04:35:10;97731.88;;;0.02;100.00
33185;BME280;19550;42.872;25.494;2023-01-25T04:37:36;97730.16;;;0.07;100.00
33185;BME280;19550;42.872;25.494;2023-01-25T04:40:05;97732.38;;;0.17;100.00
33185;BME280;19550;42.872;25.494;2023-01-25T04:42:32;97724.06;;;0.12;100.00
33185;BME280;19550;42.872;25.494;2023-01-25T04:45:00;97738.84;;;0.22;100.00
33185;BME280;19550;42.872;25.494;2023-01-25T04:47:27;97731.41;;;0.11;100.00
33185;BME280;19550;42.872;25.494;2023-01-25T04:49:54;97738.94;;;0.09;100.00
33185;BME280;19550;42.872;25.494;2023-01-25T04:52:21;97735.63;;;0.32;100.00
33185;BME280;19550;42.872;25.494;2023-01-25T04:54:48;97736.06;;;0.29;100.00
33185;BME280;19550;42.872;25.494;2023-01-25T04:57:14;97737.75;;;0.30;100.00
33185;BME280;19550;42.872;25.494;2023-01-25T04:59:41;97744.47;;;0.27;100.00
33185;BME280;19550;42.872;25.494;2023-01-25T05:02:10;97744.88;;;0.31;100.00
33185;BME280;19550;42.872;25.494;2023-01-25T05:04:37;97749.25;;;0.32;100.00
33185;BME280;19550;42.872;25.494;2023-01-25T05:07:04;97744.91;;;0.24;100.00
33185;BME280;19550;42.872;25.494;2023-01-25T05:09:30;97741.31;;;0.30;100.00
33185;BME280;19550;42.872;25.494;2023-01-25T05:11:57;97749.13;;;0.20;100.00
33185;BME280;19550;42.872;25.494;2023-01-25T05:14:24;97740.72;;;0.22;100.00
33185;BME280;19550;42.872;25.494;2023-01-25T05:16:51;97746.19;;;0.22;100.00
33185;BME280;19550;42.872;25.494;2023-01-25T05:19:19;97738.13;;;0.09;100.00
33185;BME280;19550;42.872;25.494;2023-01-25T05:21:46;97749.47;;;0.06;100.00
33185;BME280;19550;42.872;25.494;2023-01-25T05:24:26;97747.13;;;0.09;100.00
33185;BME280;19550;42.872;25.494;2023-01-25T05:26:53;97744.56;;;0.14;100.00
33185;BME280;19550;42.872;25.494;2023-01-25T05:29:24;97741.47;;;0.11;100.00
33185;BME280;19550;42.872;25.494;2023-01-25T05:31:51;97744.09;;;0.24;100.00
33185;BME280;19550;42.872;25.494;2023-01-25T05:34:20;97742.88;;;0.20;100.00
33185;BME280;19550;42.872;25.494;2023-01-25T05:36:47;97741.63;;;0.16;100.00
33185;BME280;19550;42.872;25.494;2023-01-25T05:39:14;97739.34;;;0.13;100.00
33185;BME280;19550;42.872;25.494;2023-01-25T05:41:40;97734.69;;;0.20;100.00
33185;BME280;19550;42.872;25.494;2023-01-25T05:44:08;97744.09;;;0.24;100.00
33185;BME280;19550;42.872;25.494;2023-01-25T05:46:36;97740.63;;;0.35;100.00
33185;BME280;19550;42.872;25.494;2023-01-25T05:49:03;97738.25;;;0.45;100.00
33185;BME280;19550;42.872;25.494;2023-01-25T05:51:32;97741.25;;;0.37;100.00
33185;BME280;19550;42.872;25.494;2023-01-25T05:54:00;97750.09;;;0.32;100.00
33185;BME280;19550;42.872;25.494;2023-01-25T05:56:27;97755.44;;;0.46;100.00
33185;BME280;19550;42.872;25.494;2023-01-25T05:58:55;97748.91;;;0.22;100.00
33185;BME280;19550;42.872;25.494;2023-01-25T06:01:23;97746.25;;;0.15;100.00
33185;BME280;19550;42.872;25.494;2023-01-25T06:03:50;97748.97;;;0.15;100.00
33185;BME280;19550;42.872;25.494;2023-01-25T06:06:17;97745.34;;;0.21;100.00
33185;BME280;19550;42.872;25.494;2023-01-25T06:08:46;97747.13;;;0.34;100.00
33185;BME280;19550;42.872;25.494;2023-01-25T06:11:14;97752.78;;;0.39;100.00
33185;BME280;19550;42.872;25.494;2023-01-25T06:13:42;97746.63;;;0.44;100.00
33185;BME280;19550;42.872;25.494;2023-01-25T06:16:09;97743.97;;;0.37;100.00
33185;BME280;19550;42.872;25.494;2023-01-25T06:18:36;97746.75;;;0.30;100.00
33185;BME280;19550;42.872;25.494;2023-01-25T06:21:04;97745.75;;;0.25;100.00
33185;BME280;19550;42.872;25.494;2023-01-25T06:23:31;97743.28;;;0.17;100.00
33185;BME280;19550;42.872;25.494;2023-01-25T06:26:00;97744.28;;;0.22;100.00
33185;BME280;19550;42.872;25.494;2023-01-25T06:28:29;97749.53;;;0.24;100.00
33185;BME280;19550;42.872;25.494;2023-01-25T06:31:01;97754.47;;;0.33;100.00
33185;BME280;19550;42.872;25.494;2023-01-25T06:33:28;97751.31;;;0.36;100.00
33185;BME280;19550;42.872;25.494;2023-01-25T06:35:59;97746.47;;;0.38;100.00
33185;BME280;19550;42.872;25.494;2023-01-25T06:38:26;97748.59;;;0.36;100.00
33185;BME280;19550;42.872;25.494;2023-01-25T06:40:52;97759.28;;;0.38;100.00
33185;BME280;19550;42.872;25.494;2023-01-25T06:43:21;97750.59;;;0.23;100.00
33185;BME280;19550;42.872;25.494;2023-01-25T06:45:47;97767.69;;;0.36;100.00
33185;BME280;19550;42.872;25.494;2023-01-25T06:48:14;97766.22;;;0.34;100.00
33185;BME280;19550;42.872;25.494;2023-01-25T06:50:41;97763.28;;;0.35;100.00
33185;BME280;19550;42.872;25.494;2023-01-25T06:53:11;97761.00;;;0.57;100.00
33185;BME280;19550;42.872;25.494;2023-01-25T06:55:38;97771.75;;;0.52;100.00
33185;BME280;19550;42.872;25.494;2023-01-25T06:58:05;97774.84;;;0.56;100.00
33185;BME280;19550;42.872;25.494;2023-01-25T07:00:33;97774.41;;;0.59;100.00
33185;BME280;19550;42.872;25.494;2023-01-25T07:03:00;97777.41;;;0.51;100.00
33185;BME280;19550;42.872;25.494;2023-01-25T07:05:27;97768.63;;;0.49;100.00
33185;BME280;19550;42.872;25.494;2023-01-25T07:07:53;97761.31;;;0.43;100.00
33185;BME280;19550;42.872;25.494;2023-01-25T07:10:20;97764.06;;;0.43;100.00
33185;BME280;19550;42.872;25.494;2023-01-25T07:12:47;97773.44;;;0.47;100.00
33185;BME280;19550;42.872;25.494;2023-01-25T07:15:14;97772.19;;;0.49;100.00
33185;BME280;19550;42.872;25.494;2023-01-25T07:17:42;97760.38;;;0.55;100.00
33185;BME280;19550;42.872;25.494;2023-01-25T07:20:10;97759.31;;;0.56;100.00
33185;BME280;19550;42.872;25.494;2023-01-25T07:22:37;97773.13;;;0.61;100.00
33185;BME280;19550;42.872;25.494;2023-01-25T07:25:04;97757.59;;;0.37;100.00
33185;BME280;19550;42.872;25.494;2023-01-25T07:27:32;97766.63;;;0.37;100.00
33185;BME280;19550;42.872;25.494;2023-01-25T07:29:59;97761.50;;;0.48;100.00
33185;BME280;19550;42.872;25.494;2023-01-25T07:32:26;97762.59;;;0.65;100.00
33185;BME280;19550;42.872;25.494;2023-01-25T07:34:54;97767.16;;;0.71;100.00
33185;BME280;19550;42.872;25.494;2023-01-25T07:37:21;97769.13;;;0.64;100.00
33185;BME280;19550;42.872;25.494;2023-01-25T07:39:48;97769.28;;;0.69;100.00
33185;BME280;19550;42.872;25.494;2023-01-25T07:42:15;97775.72;;;0.74;100.00
33185;BME280;19550;42.872;25.494;2023-01-25T07:44:42;97766.03;;;0.78;100.00
33185;BME280;19550;42.872;25.494;2023-01-25T07:47:09;97770.88;;;0.76;100.00
33185;BME280;19550;42.872;25.494;2023-01-25T07:49:36;97771.88;;;0.82;100.00
33185;BME280;19550;42.872;25.494;2023-01-25T07:52:04;97768.72;;;0.85;100.00
33185;BME280;19550;42.872;25.494;2023-01-25T07:54:31;97767.19;;;0.89;100.00
33185;BME280;19550;42.872;25.494;2023-01-25T07:56:58;97765.38;;;1.01;100.00
33185;BME280;19550;42.872;25.494;2023-01-25T07:59:25;97772.13;;;0.99;100.00
33185;BME280;19550;42.872;25.494;2023-01-25T08:01:52;97770.94;;;1.13;100.00
33185;BME280;19550;42.872;25.494;2023-01-25T08:04:19;97767.03;;;1.20;100.00
33185;BME280;19550;42.872;25.494;2023-01-25T08:06:46;97773.34;;;1.21;100.00
33185;BME280;19550;42.872;25.494;2023-01-25T08:09:16;97768.13;;;1.19;99.36
33185;BME280;19550;42.872;25.494;2023-01-25T08:11:44;97764.63;;;1.12;99.05
33185;BME280;19550;42.872;25.494;2023-01-25T08:14:11;97767.59;;;1.29;99.45
33185;BME280;19550;42.872;25.494;2023-01-25T08:16:38;97772.06;;;1.24;99.35
33185;BME280;19550;42.872;25.494;2023-01-25T08:19:05;97768.72;;;1.22;99.58
33185;BME280;19550;42.872;25.494;2023-01-25T08:21:33;97771.91;;;1.18;96.02
33185;BME280;19550;42.872;25.494;2023-01-25T08:24:02;97771.38;;;1.10;97.21
33185;BME280;19550;42.872;25.494;2023-01-25T08:26:31;97767.59;;;1.11;96.31
33185;BME280;19550;42.872;25.494;2023-01-25T08:28:58;97765.97;;;1.03;95.21
33185;BME280;19550;42.872;25.494;2023-01-25T08:31:26;97768.94;;;1.02;95.20
33185;BME280;19550;42.872;25.494;2023-01-25T08:33:53;97775.63;;;1.06;95.40
33185;BME280;19550;42.872;25.494;2023-01-25T08:36:20;97775.22;;;1.02;95.89
33185;BME280;19550;42.872;25.494;2023-01-25T08:38:52;97769.09;;;1.07;96.14
33185;BME280;19550;42.872;25.494;2023-01-25T08:41:20;97766.06;;;1.15;94.79
33185;BME280;19550;42.872;25.494;2023-01-25T08:43:51;97768.09;;;1.01;95.54
33185;BME280;19550;42.872;25.494;2023-01-25T08:46:18;97766.53;;;1.12;96.04
33185;BME280;19550;42.872;25.494;2023-01-25T08:48:45;97769.34;;;1.05;94.97
33185;BME280;19550;42.872;25.494;2023-01-25T08:51:13;97763.31;;;0.97;94.83
33185;BME280;19550;42.872;25.494;2023-01-25T08:53:41;97773.97;;;1.05;95.37
33185;BME280;19550;42.872;25.494;2023-01-25T08:56:10;97771.88;;;1.00;94.63
33185;BME280;19550;42.872;25.494;2023-01-25T08:58:38;97766.81;;;1.04;95.00
33185;BME280;19550;42.872;25.494;2023-01-25T09:01:09;97765.47;;;1.13;94.55
33185;BME280;19550;42.872;25.494;2023-01-25T09:03:38;97761.22;;;1.17;93.79
33185;BME280;19550;42.872;25.494;2023-01-25T09:06:06;97759.47;;;1.04;94.04
33185;BME280;19550;42.872;25.494;2023-01-25T09:08:34;97762.56;;;1.08;94.06
33185;BME280;19550;42.872;25.494;2023-01-25T09:11:03;97764.63;;;1.12;93.72
33185;BME280;19550;42.872;25.494;2023-01-25T09:13:30;97765.22;;;1.14;94.00
33185;BME280;19550;42.872;25.494;2023-01-25T09:16:00;97763.88;;;1.24;94.06
33185;BME280;19550;42.872;25.494;2023-01-25T09:18:30;97761.34;;;1.58;94.62
33185;BME280;19550;42.872;25.494;2023-01-25T09:20:57;97748.38;;;1.36;91.37
33185;BME280;19550;42.872;25.494;2023-01-25T09:23:24;97755.13;;;1.15;91.95
33185;BME280;19550;42.872;25.494;2023-01-25T09:25:55;97743.16;;;1.16;93.03
33185;BME280;19550;42.872;25.494;2023-01-25T09:28:23;97737.09;;;1.32;93.28
33185;BME280;19550;42.872;25.494;2023-01-25T09:30:54;97733.66;;;1.37;91.37
33185;BME280;19550;42.872;25.494;2023-01-25T09:33:24;97737.06;;;1.50;91.17
33185;BME280;19550;42.872;25.494;2023-01-25T09:35:52;97723.19;;;1.52;90.61
33185;BME280;19550;42.872;25.494;2023-01-25T09:38:19;97726.91;;;1.39;88.37
33185;BME280;19550;42.872;25.494;2023-01-25T09:40:56;97718.84;;;1.44;89.12
33185;BME280;19550;42.872;25.494;2023-01-25T09:43:37;97687.09;;;1.32;90.38
33185;BME280;19550;42.872;25.494;2023-01-25T09:46:18;97694.28;;;1.44;90.57
33185;BME280;19550;42.872;25.494;2023-01-25T09:48:54;97711.78;;;1.55;88.86
33185;BME280;19550;42.872;25.494;2023-01-25T09:51:32;97699.06;;;1.60;89.27
33185;BME280;19550;42.872;25.494;2023-01-25T09:54:07;97698.31;;;1.72;89.23
33185;BME280;19550;42.872;25.494;2023-01-25T09:56:36;97695.09;;;1.75;89.84
33185;BME280;19550;42.872;25.494;2023-01-25T09:59:06;97694.59;;;1.66;88.70
33185;BME280;19550;42.872;25.494;2023-01-25T10:01:42;97693.16;;;1.64;88.94
33185;BME280;19550;42.872;25.494;2023-01-25T10:04:14;97697.25;;;1.73;88.48
33185;BME280;19550;42.872;25.494;2023-01-25T10:06:46;97694.31;;;1.56;89.20
33185;BME280;19550;42.872;25.494;2023-01-25T10:09:21;97686.97;;;1.56;88.14
33185;BME280;19550;42.872;25.494;2023-01-25T10:11:49;97684.63;;;1.72;89.45
33185;BME280;19550;42.872;25.494;2023-01-25T10:14:17;97677.75;;;1.81;88.61
33185;BME280;19550;42.872;25.494;2023-01-25T10:16:57;97675.75;;;1.88;87.74
33185;BME280;19550;42.872;25.494;2023-01-25T10:19:27;97667.34;;;2.01;86.08
33185;BME280;19550;42.872;25.494;2023-01-25T10:22:00;97656.41;;;2.01;87.27
33185;BME280;19550;42.872;25.494;2023-01-25T10:24:47;97655.22;;;1.85;85.05
33185;BME280;19550;42.872;25.494;2023-01-25T10:27:26;97643.50;;;1.67;86.08
33185;BME280;19550;42.872;25.494;2023-01-25T10:30:01;97643.16;;;1.75;87.35
33185;BME280;19550;42.872;25.494;2023-01-25T10:32:29;97645.78;;;1.81;86.27
33185;BME280;19550;42.872;25.494;2023-01-25T10:35:04;97654.63;;;1.95;87.46
33185;BME280;19550;42.872;25.494;2023-01-25T10:37:40;97631.47;;;2.09;85.42
33185;BME280;19550;42.872;25.494;2023-01-25T10:40:13;97635.13;;;2.03;86.14
33185;BME280;19550;42.872;25.494;2023-01-25T10:42:45;97630.63;;;2.09;85.33
33185;BME280;19550;42.872;25.494;2023-01-25T10:45:15;97633.47;;;2.02;85.32
33185;BME280;19550;42.872;25.494;2023-01-25T10:47:44;97625.50;;;2.00;86.25
33185;BME280;19550;42.872;25.494;2023-01-25T10:53:28;97617.06;;;2.14;86.92
33185;BME280;19550;42.872;25.494;2023-01-25T10:56:04;97614.59;;;2.24;85.79
33185;BME280;19550;42.872;25.494;2023-01-25T10:58:35;97606.84;;;1.97;84.73
33185;BME280;19550;42.872;25.494;2023-01-25T11:01:03;97598.97;;;1.89;84.79
33185;BME280;19550;42.872;25.494;2023-01-25T11:03:37;97596.25;;;1.89;85.29
33185;BME280;19550;42.872;25.494;2023-01-25T11:06:04;97583.31;;;1.96;85.87
33185;BME280;19550;42.872;25.494;2023-01-25T11:08:35;97596.38;;;1.94;84.92
33185;BME280;19550;42.872;25.494;2023-01-25T11:11:21;97586.38;;;2.00;84.30
33185;BME280;19550;42.872;25.494;2023-01-25T11:13:50;97582.13;;;1.92;84.97
33185;BME280;19550;42.872;25.494;2023-01-25T11:16:30;97579.63;;;1.79;84.08
33185;BME280;19550;42.872;25.494;2023-01-25T11:18:58;97568.41;;;1.69;86.16
33185;BME280;19550;42.872;25.494;2023-01-25T11:21:28;97567.25;;;1.77;85.25
33185;BME280;19550;42.872;25.494;2023-01-25T11:24:14;97571.16;;;1.81;85.95
33185;BME280;19550;42.872;25.494;2023-01-25T11:26:43;97564.72;;;1.64;84.97
33185;BME280;19550;42.872;25.494;2023-01-25T11:29:13;97555.59;;;1.81;85.11
33185;BME280;19550;42.872;25.494;2023-01-25T11:31:43;97554.41;;;2.00;85.28
33185;BME280;19550;42.872;25.494;2023-01-25T11:34:12;97553.09;;;2.03;85.24
33185;BME280;19550;42.872;25.494;2023-01-25T11:37:07;97544.41;;;2.06;86.56
33185;BME280;19550;42.872;25.494;2023-01-25T11:39:49;97551.09;;;1.98;86.04
33185;BME280;19550;42.872;25.494;2023-01-25T11:42:24;97552.88;;;2.16;85.07
33185;BME280;19550;42.872;25.494;2023-01-25T11:45:15;97543.00;;;2.04;83.10
33185;BME280;19550;42.872;25.494;2023-01-25T11:47:56;97535.41;;;2.06;85.45
33185;BME280;19550;42.872;25.494;2023-01-25T11:50:30;97543.34;;;2.07;84.96
33185;BME280;19550;42.872;25.494;2023-01-25T11:53:15;97534.44;;;2.12;83.70
33185;BME280;19550;42.872;25.494;2023-01-25T11:55:56;97533.00;;;2.21;83.68
33185;BME280;19550;42.872;25.494;2023-01-25T11:58:38;97535.25;;;2.24;83.60
33185;BME280;19550;42.872;25.494;2023-01-25T12:01:17;97528.97;;;2.12;81.94
33185;BME280;19550;42.872;25.494;2023-01-25T12:04:13;97541.47;;;1.84;83.01
33185;BME280;19550;42.872;25.494;2023-01-25T12:06:55;97526.00;;;1.78;84.16
33185;BME280;19550;42.872;25.494;2023-01-25T12:09:43;97527.19;;;1.94;84.00
33185;BME280;19550;42.872;25.494;2023-01-25T12:12:21;97533.72;;;1.93;84.32
33185;BME280;19550;42.872;25.494;2023-01-25T12:15:05;97529.69;;;1.84;82.75
33185;BME280;19550;42.872;25.494;2023-01-25T12:17:42;97525.78;;;1.91;82.86
33185;BME280;19550;42.872;25.494;2023-01-25T12:20:33;97533.03;;;1.97;81.96
33185;BME280;19550;42.872;25.494;2023-01-25T12:23:15;97523.13;;;1.73;81.94
33185;BME280;19550;42.872;25.494;2023-01-25T12:25:59;97524.47;;;1.82;83.20
33185;BME280;19550;42.872;25.494;2023-01-25T12:28:36;97524.44;;;1.94;80.99
33185;BME280;19550;42.872;25.494;2023-01-25T12:31:09;97526.50;;;1.98;82.69
33185;BME280;19550;42.872;25.494;2023-01-25T12:33:41;97514.59;;;2.05;82.43
33185;BME280;19550;42.872;25.494;2023-01-25T12:36:13;97513.50;;;1.94;82.78
33185;BME280;19550;42.872;25.494;2023-01-25T12:38:49;97511.72;;;1.99;82.16
33185;BME280;19550;42.872;25.494;2023-01-25T12:41:25;97507.91;;;2.00;82.09
33185;BME280;19550;42.872;25.494;2023-01-25T12:44:05;97503.16;;;2.08;82.19
33185;BME280;19550;42.872;25.494;2023-01-25T12:46:39;97501.97;;;2.15;81.26
33185;BME280;19550;42.872;25.494;2023-01-25T12:49:16;97501.72;;;2.17;81.22
33185;BME280;19550;42.872;25.494;2023-01-25T12:51:44;97494.75;;;1.97;81.66
33185;BME280;19550;42.872;25.494;2023-01-25T12:54:16;97493.66;;;2.10;82.48
33185;BME280;19550;42.872;25.494;2023-01-25T12:56:51;97491.88;;;2.04;82.09
33185;BME280;19550;42.872;25.494;2023-01-25T12:59:29;97492.84;;;1.86;81.89
33185;BME280;19550;42.872;25.494;2023-01-25T13:02:11;97496.41;;;1.98;82.18
33185;BME280;19550;42.872;25.494;2023-01-25T13:04:52;97493.06;;;1.73;82.38
33185;BME280;19550;42.872;25.494;2023-01-25T13:07:28;97495.47;;;1.81;83.57
33185;BME280;19550;42.872;25.494;2023-01-25T13:10:01;97500.09;;;2.04;83.41
33185;BME280;19550;42.872;25.494;2023-01-25T13:12:49;97497.25;;;1.99;83.54